sensor_id;sensor_type;location;lat;lon;timestamp;pressure;altitude;pressure_sealevel;temperature;humidity
19236;BME280;9752;54.270;12.470;2023-02-07T00:01:43;104595.16;;;-6.02;100.00
19236;BME280;9752;54.270;12.470;2023-02-07T00:06:46;104595.25;;;-6.06;100.00
19236;BME280;9752;54.270;12.470;2023-02-07T00:11:47;104594.75;;;-6.13;100.00
19236;BME280;9752;54.270;12.470;2023-02-07T00:16:49;104591.66;;;-6.16;100.00
19236;BME280;9752;54.270;12.470;2023-02-07T00:21:52;104575.84;;;-6.15;100.00
19236;BME280;9752;54.270;12.470;2023-02-07T00:26:54;104579.88;;;-6.12;100.00
19236;BME280;9752;54.270;12.470;2023-02-07T00:31:56;104572.66;;;-6.14;100.00
19236;BME280;9752;54.270;12.470;2023-02-07T00:36:59;104582.56;;;-6.20;100.00
19236;BME280;9752;54.270;12.470;2023-02-07T00:42:01;104583.50;;;-6.19;100.00
19236;BME280;9752;54.270;12.470;2023-02-07T00:47:03;104584.88;;;-6.25;100.00
19236;BME280;9752;54.270;12.470;2023-02-07T00:52:06;104587.84;;;-6.14;100.00
19236;BME280;9752;54.270;12.470;2023-02-07T00:57:08;104588.25;;;-5.89;100.00
19236;BME280;9752;54.270;12.470;2023-02-07T01:02:09;104583.06;;;-6.13;100.00
19236;BME280;9752;54.270;12.470;2023-02-07T01:07:12;104576.41;;;-6.12;100.00
19236;BME280;9752;54.270;12.470;2023-02-07T01:12:15;104569.94;;;-6.38;100.00
19236;BME280;9752;54.270;12.470;2023-02-07T01:17:17;104562.06;;;-6.39;100.00
19236;BME280;9752;54.270;12.470;2023-02-07T01:22:19;104562.84;;;-6.31;100.00
19236;BME280;9752;54.270;12.470;2023-02-07T01:27:22;104553.34;;;-6.28;100.00
19236;BME280;9752;54.270;12.470;2023-02-07T01:32:24;104561.00;;;-6.00;100.00
19236;BME280;9752;54.270;12.470;2023-02-07T01:37:27;104559.97;;;-5.82;100.00
19236;BME280;9752;54.270;12.470;2023-02-07T01:42:30;104564.47;;;-5.54;100.00
19236;BME280;9752;54.270;12.470;2023-02-07T01:47:32;104568.03;;;-5.30;100.00
19236;BME280;9752;54.270;12.470;2023-02-07T01:52:38;104579.69;;;-4.61;100.00
19236;BME280;9752;54.270;12.470;2023-02-07T01:57:43;104595.50;;;-4.48;100.00
19236;BME280;9752;54.270;12.470;2023-02-07T02:02:45;104588.28;;;-4.51;100.00
19236;BME280;9752;54.270;12.470;2023-02-07T02:07:48;104592.19;;;-4.66;100.00
19236;BME280;9752;54.270;12.470;2023-02-07T02:13:06;104579.75;;;-4.88;100.00
19236;BME280;9752;54.270;12.470;2023-02-07T02:18:24;104567.47;;;-5.19;100.00
19236;BME280;9752;54.270;12.470;2023-02-07T02:23:40;104565.41;;;-5.12;100.00
19236;BME280;9752;54.270;12.470;2023-02-07T02:29:07;104558.09;;;-5.24;100.00
19236;BME280;9752;54.270;12.470;2023-02-07T02:34:16;104544.63;;;-5.42;100.00
19236;BME280;9752;54.270;12.470;2023-02-07T02:39:25;104553.22;;;-5.32;100.00
19236;BME280;9752;54.270;12.470;2023-02-07T02:44:35;104552.59;;;-5.31;100.00
19236;BME280;9752;54.270;12.470;2023-02-07T02:49:41;104543.09;;;-5.32;100.00
19236;BME280;9752;54.270;12.470;2023-02-07T02:54:44;104547.53;;;-5.31;100.00
19236;BME280;9752;54.270;12.470;2023-02-07T03:05:40;104524.81;;;-5.35;100.00
19236;BME280;9752;54.270;12.470;2023-02-07T03:10:51;104535.16;;;-5.16;100.00
19236;BME280;9752;54.270;12.470;2023-02-07T03:16:02;104529.72;;;-5.27;100.00
19236;BME280;9752;54.270;12.470;2023-02-07T03:21:11;104518.63;;;-5.41;100.00
19236;BME280;9752;54.270;12.470;2023-02-07T03:26:16;104531.38;;;-5.32;100.00
19236;BME280;9752;54.270;12.470;2023-02-07T03:31:21;104521.53;;;-5.02;100.00
19236;BME280;9752;54.270;12.470;2023-02-07T03:36:28;104509.81;;;-5.02;100.00
19236;BME280;9752;54.270;12.470;2023-02-07T03:41:37;104515.81;;;-5.15;100.00
19236;BME280;9752;54.270;12.470;2023-02-07T03:46:41;104508.63;;;-5.18;100.00
19236;BME280;9752;54.270;12.470;2023-02-07T03:51:46;104497.06;;;-5.12;100.00
19236;BME280;9752;54.270;12.470;2023-02-07T03:56:47;104492.09;;;-5.30;100.00
19236;BME280;9752;54.270;12.470;2023-02-07T04:01:49;104489.78;;;-5.38;100.00
19236;BME280;9752;54.270;12.470;2023-02-07T04:06:52;104485.66;;;-5.37;100.00
19236;BME280;9752;54.270;12.470;2023-02-07T04:11:54;104481.53;;;-5.23;100.00
19236;BME280;9752;54.270;12.470;2023-02-07T04:16:56;104483.22;;;-5.41;100.00
19236;BME280;9752;54.270;12.470;2023-02-07T04:21:59;104485.28;;;-5.35;100.00
19236;BME280;9752;54.270;12.470;2023-02-07T04:27:00;104502.78;;;-5.54;100.00
19236;BME280;9752;54.270;12.470;2023-02-07T04:32:02;104517.63;;;-5.38;100.00
19236;BME280;9752;54.270;12.470;2023-02-07T04:37:05;104539.06;;;-5.22;100.00
19236;BME280;9752;54.270;12.470;2023-02-07T04:42:07;104534.38;;;-5.52;100.00
19236;BME280;9752;54.270;12.470;2023-02-07T04:47:09;104540.75;;;-5.54;100.00
19236;BME280;9752;54.270;12.470;2023-02-07T04:52:12;104547.97;;;-5.52;100.00
19236;BME280;9752;54.270;12.470;2023-02-07T04:57:14;104546.38;;;-5.65;100.00
19236;BME280;9752;54.270;12.470;2023-02-07T05:02:16;104559.59;;;-5.34;100.00
19236;BME280;9752;54.270;12.470;2023-02-07T05:07:19;104562.88;;;-5.12;100.00
19236;BME280;9752;54.270;12.470;2023-02-07T05:12:20;104559.41;;;-4.98;100.00
19236;BME280;9752;54.270;12.470;2023-02-07T05:17:22;104556.50;;;-5.10;100.00
19236;BME280;9752;54.270;12.470;2023-02-07T05:22:25;104544.22;;;-5.26;100.00
19236;BME280;9752;54.270;12.470;2023-02-07T05:27:27;104560.81;;;-5.04;100.00
19236;BME280;9752;54.270;12.470;2023-02-07T05:32:28;104565.66;;;-4.82;100.00
19236;BME280;9752;54.270;12.470;2023-02-07T05:37:49;104569.88;;;-4.87;100.00
19236;BME280;9752;54.270;12.470;2023-02-07T05:42:51;104583.44;;;-4.73;100.00
19236;BME280;9752;54.270;12.470;2023-02-07T05:47:52;104584.31;;;-4.82;100.00
19236;BME280;9752;54.270;12.470;2023-02-07T05:52:55;104585.75;;;-5.02;100.00
19236;BME280;9752;54.270;12.470;2023-02-07T05:57:57;104584.25;;;-5.05;100.00
19236;BME280;9752;54.270;12.470;2023-02-07T06:02:59;104585.56;;;-5.21;100.00
19236;BME280;9752;54.270;12.470;2023-02-07T06:08:02;104587.06;;;-5.18;100.00
19236;BME280;9752;54.270;12.470;2023-02-07T06:13:04;104579.84;;;-5.34;100.00
19236;BME280;9752;54.270;12.470;2023-02-07T06:18:06;104589.66;;;-5.22;100.00
19236;BME280;9752;54.270;12.470;2023-02-07T06:23:09;104589.13;;;-5.25;100.00
19236;BME280;9752;54.270;12.470;2023-02-07T06:28:11;104593.59;;;-5.42;100.00
19236;BME280;9752;54.270;12.470;2023-02-07T06:33:12;104580.25;;;-5.69;100.00
19236;BME280;9752;54.270;12.470;2023-02-07T06:38:16;104574.50;;;-5.81;100.00
19236;BME280;9752;54.270;12.470;2023-02-07T06:43:18;104582.00;;;-5.77;100.00
19236;BME280;9752;54.270;12.470;2023-02-07T06:48:20;104585.66;;;-5.71;100.00
19236;BME280;9752;54.270;12.470;2023-02-07T06:53:23;104592.84;;;-5.82;100.00
19236;BME280;9752;54.270;12.470;2023-02-07T06:58:25;104587.16;;;-5.81;100.00
19236;BME280;9752;54.270;12.470;2023-02-07T07:03:27;104588.28;;;-5.75;100.00
19236;BME280;9752;54.270;12.470;2023-02-07T07:08:30;104580.28;;;-5.55;100.00
19236;BME280;9752;54.270;12.470;2023-02-07T07:13:31;104589.47;;;-5.55;100.00
19236;BME280;9752;54.270;12.470;2023-02-07T07:18:33;104588.53;;;-5.56;100.00
19236;BME280;9752;54.270;12.470;2023-02-07T07:23:38;104584.13;;;-5.43;100.00
19236;BME280;9752;54.270;12.470;2023-02-07T07:28:39;104606.44;;;-5.08;100.00
19236;BME280;9752;54.270;12.470;2023-02-07T07:33:41;104598.97;;;-4.85;100.00
19236;BME280;9752;54.270;12.470;2023-02-07T07:38:44;104605.38;;;-4.63;100.00
19236;BME280;9752;54.270;12.470;2023-02-07T07:43:46;104601.72;;;-4.42;100.00
19236;BME280;9752;54.270;12.470;2023-02-07T07:48:48;104605.41;;;-4.26;100.00
19236;BME280;9752;54.270;12.470;2023-02-07T07:53:51;104608.03;;;-4.06;100.00
19236;BME280;9752;54.270;12.470;2023-02-07T07:58:52;104620.44;;;-3.84;100.00
19236;BME280;9752;54.270;12.470;2023-02-07T08:03:54;104624.78;;;-3.69;100.00
19236;BME280;9752;54.270;12.470;2023-02-07T08:08:57;104622.97;;;-3.51;100.00
19236;BME280;9752;54.270;12.470;2023-02-07T08:13:59;104626.94;;;-3.34;100.00
19236;BME280;9752;54.270;12.470;2023-02-07T08:19:01;104626.41;;;-3.17;100.00
19236;BME280;9752;54.270;12.470;2023-02-07T08:24:04;104637.00;;;-3.00;100.00
19236;BME280;9752;54.270;12.470;2023-02-07T08:29:06;104642.00;;;-2.86;100.00
19236;BME280;9752;54.270;12.470;2023-02-07T08:34:08;104646.94;;;-2.72;100.00
19236;BME280;9752;54.270;12.470;2023-02-07T08:39:12;104644.81;;;-2.56;100.00
19236;BME280;9752;54.270;12.470;2023-02-07T08:44:14;104646.25;;;-2.32;100.00
19236;BME280;9752;54.270;12.470;2023-02-07T08:49:15;104640.22;;;-2.13;100.00
19236;BME280;9752;54.270;12.470;2023-02-07T08:54:19;104632.78;;;-1.92;100.00
19236;BME280;9752;54.270;12.470;2023-02-07T08:59:20;104627.13;;;-1.76;100.00
19236;BME280;9752;54.270;12.470;2023-02-07T09:04:22;104630.25;;;-1.58;100.00
19236;BME280;9752;54.270;12.470;2023-02-07T09:09:25;104641.00;;;-1.39;100.00
19236;BME280;9752;54.270;12.470;2023-02-07T09:14:27;104646.94;;;-1.19;100.00
19236;BME280;9752;54.270;12.470;2023-02-07T09:19:28;104644.00;;;-1.01;100.00
19236;BME280;9752;54.270;12.470;2023-02-07T09:24:32;104638.44;;;-0.89;100.00
19236;BME280;9752;54.270;12.470;2023-02-07T09:29:33;104636.00;;;-0.83;100.00
19236;BME280;9752;54.270;12.470;2023-02-07T09:34:35;104639.03;;;-0.80;100.00
19236;BME280;9752;54.270;12.470;2023-02-07T09:39:38;104637.94;;;-0.61;100.00
19236;BME280;9752;54.270;12.470;2023-02-07T09:44:48;104622.31;;;-0.53;100.00
19236;BME280;9752;54.270;12.470;2023-02-07T09:49:56;104621.28;;;-0.28;100.00
19236;BME280;9752;54.270;12.470;2023-02-07T09:55:02;104620.28;;;-0.13;100.00
19236;BME280;9752;54.270;12.470;2023-02-07T10:00:06;104606.94;;;-0.07;100.00
19236;BME280;9752;54.270;12.470;2023-02-07T10:05:21;104600.28;;;-0.01;100.00
19236;BME280;9752;54.270;12.470;2023-02-07T10:10:33;104607.16;;;0.10;100.00
19236;BME280;9752;54.270;12.470;2023-02-07T10:15:46;104609.84;;;0.22;100.00
19236;BME280;9752;54.270;12.470;2023-02-07T10:20:54;104589.47;;;0.27;100.00
19236;BME280;9752;54.270;12.470;2023-02-07T10:26:07;104586.00;;;0.48;100.00
19236;BME280;9752;54.270;12.470;2023-02-07T10:31:12;104592.19;;;0.65;100.00
19236;BME280;9752;54.270;12.470;2023-02-07T10:36:16;104587.19;;;0.76;100.00
19236;BME280;9752;54.270;12.470;2023-02-07T10:41:31;104569.13;;;0.86;100.00
19236;BME280;9752;54.270;12.470;2023-02-07T10:46:34;104559.78;;;1.08;100.00
19236;BME280;9752;54.270;12.470;2023-02-07T10:51:40;104546.66;;;1.27;100.00
19236;BME280;9752;54.270;12.470;2023-02-07T10:56:46;104534.84;;;1.33;100.00
19236;BME280;9752;54.270;12.470;2023-02-07T11:01:52;104528.69;;;1.60;100.00
19236;BME280;9752;54.270;12.470;2023-02-07T11:06:59;104498.28;;;1.78;100.00
19236;BME280;9752;54.270;12.470;2023-02-07T11:12:12;104479.47;;;1.89;100.00
19236;BME280;9752;54.270;12.470;2023-02-07T11:17:19;104452.47;;;1.91;100.00
19236;BME280;9752;54.270;12.470;2023-02-07T11:22:22;104422.69;;;2.14;100.00
19236;BME280;9752;54.270;12.470;2023-02-07T11:27:26;104403.38;;;2.39;100.00
19236;BME280;9752;54.270;12.470;2023-02-07T11:32:28;104390.31;;;2.43;100.00
19236;BME280;9752;54.270;12.470;2023-02-07T11:37:32;104363.97;;;2.61;100.00
19236;BME280;9752;54.270;12.470;2023-02-07T11:42:36;104329.47;;;2.64;100.00
19236;BME280;9752;54.270;12.470;2023-02-07T11:47:40;104309.91;;;2.65;100.00
19236;BME280;9752;54.270;12.470;2023-02-07T11:52:49;104294.53;;;2.65;100.00
19236;BME280;9752;54.270;12.470;2023-02-07T11:57:55;104283.34;;;2.64;100.00
19236;BME280;9752;54.270;12.470;2023-02-07T12:03:00;104278.69;;;2.56;100.00
19236;BME280;9752;54.270;12.470;2023-02-07T12:08:05;104263.28;;;2.67;100.00
19236;BME280;9752;54.270;12.470;2023-02-07T12:13:14;104259.50;;;2.77;100.00
19236;BME280;9752;54.270;12.470;2023-02-07T12:18:25;104252.19;;;2.97;100.00
19236;BME280;9752;54.270;12.470;2023-02-07T12:23:36;104247.47;;;3.05;100.00
19236;BME280;9752;54.270;12.470;2023-02-07T12:28:45;104239.69;;;3.17;100.00
19236;BME280;9752;54.270;12.470;2023-02-07T12:33:56;104230.00;;;3.03;100.00
19236;BME280;9752;54.270;12.470;2023-02-07T12:39:02;104225.59;;;3.02;100.00
19236;BME280;9752;54.270;12.470;2023-02-07T12:44:13;104212.94;;;3.09;100.00
19236;BME280;9752;54.270;12.470;2023-02-07T12:49:45;104209.97;;;3.00;100.00
19236;BME280;9752;54.270;12.470;2023-02-07T12:54:58;104203.91;;;3.00;100.00
19236;BME280;9752;54.270;12.470;2023-02-07T13:00:12;104193.97;;;3.20;100.00
19236;BME280;9752;54.270;12.470;2023-02-07T13:11:02;104190.25;;;3.18;100.00
19236;BME280;9752;54.270;12.470;2023-02-07T13:16:13;104181.19;;;3.14;100.00
19236;BME280;9752;54.270;12.470;2023-02-07T13:21:21;104182.31;;;3.22;100.00
19236;BME280;9752;54.270;12.470;2023-02-07T13:26:25;104188.34;;;3.22;100.00
19236;BME280;9752;54.270;12.470;2023-02-07T13:31:34;104188.31;;;3.28;100.00
19236;BME280;9752;54.270;12.470;2023-02-07T13:36:40;104172.41;;;3.36;100.00
19236;BME280;9752;54.270;12.470;2023-02-07T13:41:50;104170.28;;;3.33;100.00
19236;BME280;9752;54.270;12.470;2023-02-07T13:47:08;104162.91;;;3.24;100.00
19236;BME280;9752;54.270;12.470;2023-02-07T13:52:22;104163.50;;;3.10;100.00
19236;BME280;9752;54.270;12.470;2023-02-07T13:57:39;104177.84;;;2.97;100.00
19236;BME280;9752;54.270;12.470;2023-02-07T14:03:01;104172.88;;;3.04;100.00
19236;BME280;9752;54.270;12.470;2023-02-07T14:08:06;104173.34;;;3.01;100.00
19236;BME280;9752;54.270;12.470;2023-02-07T14:13:28;104165.94;;;2.97;100.00
19236;BME280;9752;54.270;12.470;2023-02-07T14:18:50;104169.06;;;2.83;100.00
19236;BME280;9752;54.270;12.470;2023-02-07T14:24:04;104171.94;;;2.73;100.00
19236;BME280;9752;54.270;12.470;2023-02-07T14:29:51;104172.84;;;2.74;100.00
19236;BME280;9752;54.270;12.470;2023-02-07T14:40:24;104181.78;;;2.59;100.00
19236;BME280;9752;54.270;12.470;2023-02-07T14:45:33;104192.53;;;2.51;100.00
19236;BME280;9752;54.270;12.470;2023-02-07T14:50:37;104195.41;;;2.41;100.00
19236;BME280;9752;54.270;12.470;2023-02-07T14:55:42;104195.63;;;2.31;100.00
19236;BME280;9752;54.270;12.470;2023-02-07T15:00:49;104194.06;;;2.21;100.00
19236;BME280;9752;54.270;12.470;2023-02-07T15:05:57;104190.13;;;2.11;100.00
19236;BME280;9752;54.270;12.470;2023-02-07T15:11:01;104180.84;;;2.01;100.00
19236;BME280;9752;54.270;12.470;2023-02-07T15:16:05;104183.91;;;1.87;100.00
19236;BME280;9752;54.270;12.470;2023-02-07T15:21:15;104184.88;;;1.70;100.00
19236;BME280;9752;54.270;12.470;2023-02-07T15:26:18;104191.88;;;1.60;100.00
19236;BME280;9752;54.270;12.470;2023-02-07T15:31:20;104189.09;;;1.36;100.00
19236;BME280;9752;54.270;12.470;2023-02-07T15:36:29;104202.81;;;1.03;100.00
19236;BME280;9752;54.270;12.470;2023-02-07T15:41:32;104208.25;;;0.66;100.00
19236;BME280;9752;54.270;12.470;2023-02-07T15:46:45;104208.84;;;0.31;100.00
19236;BME280;9752;54.270;12.470;2023-02-07T15:51:48;104203.72;;;0.31;100.00
19236;BME280;9752;54.270;12.470;2023-02-07T15:56:58;104198.09;;;0.23;100.00
19236;BME280;9752;54.270;12.470;2023-02-07T16:02:00;104200.72;;;-0.10;100.00
19236;BME280;9752;54.270;12.470;2023-02-07T16:07:08;104193.72;;;-0.49;100.00
19236;BME280;9752;54.270;12.470;2023-02-07T16:12:43;104205.34;;;-0.99;100.00
19236;BME280;9752;54.270;12.470;2023-02-07T16:17:47;104207.81;;;-1.25;100.00
19236;BME280;9752;54.270;12.470;2023-02-07T16:22:50;104210.91;;;-1.59;100.00
19236;BME280;9752;54.270;12.470;2023-02-07T16:27:53;104203.94;;;-1.60;100.00
19236;BME280;9752;54.270;12.470;2023-02-07T16:32:55;104207.56;;;-1.84;100.00
19236;BME280;9752;54.270;12.470;2023-02-07T16:37:58;104225.56;;;-2.04;100.00
19236;BME280;9752;54.270;12.470;2023-02-07T16:43:01;104226.31;;;-2.30;100.00
19236;BME280;9752;54.270;12.470;2023-02-07T16:48:05;104230.69;;;-2.60;100.00
19236;BME280;9752;54.270;12.470;2023-02-07T16:53:11;104232.41;;;-2.80;100.00
19236;BME280;9752;54.270;12.470;2023-02-07T16:58:20;104224.38;;;-3.02;100.00
19236;BME280;9752;54.270;12.470;2023-02-07T17:03:22;104216.28;;;-3.15;100.00
19236;BME280;9752;54.270;12.470;2023-02-07T17:08:25;104225.13;;;-3.23;100.00
19236;BME280;9752;54.270;12.470;2023-02-07T17:13:29;104229.41;;;-3.18;100.00
19236;BME280;9752;54.270;12.470;2023-02-07T17:18:31;104239.28;;;-3.19;100.00
19236;BME280;9752;54.270;12.470;2023-02-07T17:23:34;104237.72;;;-3.28;100.00
19236;BME280;9752;54.270;12.470;2023-02-07T17:28:35;104245.91;;;-3.35;100.00
19236;BME280;9752;54.270;12.470;2023-02-07T17:33:37;104253.41;;;-3.41;100.00
19236;BME280;9752;54.270;12.470;2023-02-07T17:38:40;104246.22;;;-3.43;100.00
19236;BME280;9752;54.270;12.470;2023-02-07T17:43:42;104242.06;;;-3.43;100.00
19236;BME280;9752;54.270;12.470;2023-02-07T17:48:44;104252.56;;;-3.01;100.00
19236;BME280;9752;54.270;12.470;2023-02-07T17:53:48;104249.69;;;-2.58;100.00
19236;BME280;9752;54.270;12.470;2023-02-07T17:58:50;104247.59;;;-2.70;100.00
19236;BME280;9752;54.270;12.470;2023-02-07T18:03:53;104266.13;;;-2.81;100.00
19236;BME280;9752;54.270;12.470;2023-02-07T18:08:57;104264.09;;;-2.78;100.00
19236;BME280;9752;54.270;12.470;2023-02-07T18:13:59;104261.97;;;-3.05;100.00
19236;BME280;9752;54.270;12.470;2023-02-07T18:19:02;104255.09;;;-3.26;100.00
19236;BME280;9752;54.270;12.470;2023-02-07T18:24:06;104246.31;;;-3.47;100.00
19236;BME280;9752;54.270;12.470;2023-02-07T18:29:07;104249.97;;;-3.61;100.00
19236;BME280;9752;54.270;12.470;2023-02-07T18:34:09;104251.75;;;-3.75;100.00
19236;BME280;9752;54.270;12.470;2023-02-07T18:39:12;104250.69;;;-3.81;100.00
19236;BME280;9752;54.270;12.470;2023-02-07T18:44:14;104269.50;;;-3.95;100.00
19236;BME280;9752;54.270;12.470;2023-02-07T18:49:16;104261.22;;;-3.94;100.00
19236;BME280;9752;54.270;12.470;2023-02-07T18:54:19;104267.13;;;-3.79;100.00
19236;BME280;9752;54.270;12.470;2023-02-07T18:59:21;104268.94;;;-3.68;100.00
19236;BME280;9752;54.270;12.470;2023-02-07T19:04:23;104278.44;;;-3.67;100.00
19236;BME280;9752;54.270;12.470;2023-02-07T19:09:26;104276.53;;;-3.59;100.00
19236;BME280;9752;54.270;12.470;2023-02-07T19:14:30;104270.03;;;-3.62;100.00
19236;BME280;9752;54.270;12.470;2023-02-07T19:19:32;104268.66;;;-3.50;100.00
19236;BME280;9752;54.270;12.470;2023-02-07T19:24:35;104275.47;;;-3.55;100.00
19236;BME280;9752;54.270;12.470;2023-02-07T19:29:37;104268.38;;;-3.42;100.00
19236;BME280;9752;54.270;12.470;2023-02-07T19:34:39;104259.22;;;-3.71;100.00
19236;BME280;9752;54.270;12.470;2023-02-07T19:39:43;104261.06;;;-3.70;100.00
19236;BME280;9752;54.270;12.470;2023-02-07T19:44:45;104269.75;;;-3.83;100.00
19236;BME280;9752;54.270;12.470;2023-02-07T19:49:48;104263.91;;;-3.98;100.00
19236;BME280;9752;54.270;12.470;2023-02-07T19:54:52;104267.75;;;-3.80;100.00
19236;BME280;9752;54.270;12.470;2023-02-07T19:59:54;104268.03;;;-3.79;100.00
19236;BME280;9752;54.270;12.470;2023-02-07T20:04:56;104273.38;;;-4.06;100.00
19236;BME280;9752;54.270;12.470;2023-02-07T20:09:59;104271.25;;;-4.19;100.00
19236;BME280;9752;54.270;12.470;2023-02-07T20:15:01;104280.69;;;-4.27;100.00
19236;BME280;9752;54.270;12.470;2023-02-07T20:20:03;104276.59;;;-4.17;100.00
19236;BME280;9752;54.270;12.470;2023-02-07T20:25:07;104275.06;;;-4.50;100.00
19236;BME280;9752;54.270;12.470;2023-02-07T20:30:09;104286.94;;;-4.55;100.00
19236;BME280;9752;54.270;12.470;2023-02-07T20:35:11;104270.81;;;-4.55;100.00
19236;BME280;9752;54.270;12.470;2023-02-07T20:40:15;104276.22;;;-4.67;100.00
19236;BME280;9752;54.270;12.470;2023-02-07T20:45:17;104276.59;;;-4.80;100.00
19236;BME280;9752;54.270;12.470;2023-02-07T20:50:19;104276.59;;;-4.80;100.00
19236;BME280;9752;54.270;12.470;2023-02-07T20:55:23;104267.56;;;-4.74;100.00
19236;BME280;9752;54.270;12.470;2023-02-07T21:00:25;104279.03;;;-4.66;100.00
19236;BME280;9752;54.270;12.470;2023-02-07T21:05:26;104282.06;;;-4.73;100.00
19236;BME280;9752;54.270;12.470;2023-02-07T21:10:29;104292.16;;;-4.82;100.00
19236;BME280;9752;54.270;12.470;2023-02-07T21:15:31;104293.78;;;-4.83;100.00
19236;BME280;9752;54.270;12.470;2023-02-07T21:20:32;104304.03;;;-4.87;100.00
19236;BME280;9752;54.270;12.470;2023-02-07T21:25:38;104310.56;;;-4.83;100.00
19236;BME280;9752;54.270;12.470;2023-02-07T21:30:40;104316.84;;;-4.81;100.00
19236;BME280;9752;54.270;12.470;2023-02-07T21:35:42;104318.78;;;-4.94;100.00
19236;BME280;9752;54.270;12.470;2023-02-07T21:40:45;104320.59;;;-5.03;100.00
19236;BME280;9752;54.270;12.470;2023-02-07T21:45:47;104322.59;;;-5.06;100.00
19236;BME280;9752;54.270;12.470;2023-02-07T21:50:48;104315.22;;;-5.14;100.00
19236;BME280;9752;54.270;12.470;2023-02-07T21:55:51;104316.56;;;-4.83;100.00
19236;BME280;9752;54.270;12.470;2023-02-07T22:00:53;104326.78;;;-4.97;100.00
19236;BME280;9752;54.270;12.470;2023-02-07T22:05:55;104318.34;;;-5.01;100.00
19236;BME280;9752;54.270;12.470;2023-02-07T22:11:01;104327.53;;;-5.02;100.00
19236;BME280;9752;54.270;12.470;2023-02-07T22:16:03;104324.72;;;-5.03;100.00
19236;BME280;9752;54.270;12.470;2023-02-07T22:21:06;104320.06;;;-5.06;100.00
19236;BME280;9752;54.270;12.470;2023-02-07T22:26:10;104318.59;;;-5.10;100.00
19236;BME280;9752;54.270;12.470;2023-02-07T22:31:13;104329.00;;;-5.08;100.00
19236;BME280;9752;54.270;12.470;2023-02-07T22:36:17;104332.03;;;-5.05;100.00
19236;BME280;9752;54.270;12.470;2023-02-07T22:41:21;104333.31;;;-4.93;100.00
19236;BME280;9752;54.270;12.470;2023-02-07T22:46:23;104339.84;;;-4.90;100.00
19236;BME280;9752;54.270;12.470;2023-02-07T22:51:27;104346.78;;;-4.88;100.00
19236;BME280;9752;54.270;12.470;2023-02-07T22:56:30;104345.72;;;-4.95;100.00
19236;BME280;9752;54.270;12.470;2023-02-07T23:01:34;104353.19;;;-4.91;100.00
19236;BME280;9752;54.270;12.470;2023-02-07T23:06:37;104363.03;;;-4.92;100.00
19236;BME280;9752;54.270;12.470;2023-02-07T23:11:41;104375.75;;;-5.06;100.00
19236;BME280;9752;54.270;12.470;2023-02-07T23:16:42;104384.00;;;-5.07;100.00
19236;BME280;9752;54.270;12.470;2023-02-07T23:21:44;104386.25;;;-5.08;100.00
19236;BME280;9752;54.270;12.470;2023-02-07T23:26:47;104381.19;;;-5.08;100.00
19236;BME280;9752;54.270;12.470;2023-02-07T23:31:49;104391.47;;;-5.03;100.00
19236;BME280;9752;54.270;12.470;2023-02-07T23:36:50;104394.84;;;-4.98;100.00
19236;BME280;9752;54.270;12.470;2023-02-07T23:41:53;104404.28;;;-5.21;100.00
19236;BME280;9752;54.270;12.470;2023-02-07T23:46:57;104405.22;;;-5.20;100.00
19236;BME280;9752;54.270;12.470;2023-02-07T23:51:58;104404.34;;;-5.49;100.00
19236;BME280;9752;54.270;12.470;2023-02-07T23:57:02;104409.88;;;-5.55;100.00
